createdAt,value
2022-08-04T00:00:12.641Z,97761.03
2022-08-04T00:03:13.395Z,97761.09
2022-08-04T00:06:11.440Z,97761.16
2022-08-04T00:09:08.062Z,97766.75
2022-08-04T00:12:01.394Z,97772.13
2022-08-04T00:14:52.439Z,97771.13
2022-08-04T00:17:51.390Z,97776.13
2022-08-04T00:20:40.224Z,97778.53
2022-08-04T00:24:11.070Z,97788.28
2022-08-04T00:26:41.188Z,97785.09
2022-08-04T00:29:24.859Z,97788.06
2022-08-04T00:32:16.413Z,97789.47
2022-08-04T00:35:22.657Z,97793.97
2022-08-04T00:38:12.168Z,97777.63
2022-08-04T00:41:14.444Z,97779.19
2022-08-04T00:44:41.177Z,97776.44
2022-08-04T00:47:38.415Z,97773.16
2022-08-04T00:50:30.179Z,97779.91
2022-08-04T00:53:34.165Z,97787.88
2022-08-04T00:56:31.402Z,97795.03
2022-08-04T00:59:49.144Z,97790.13
2022-08-04T01:02:43.459Z,97783.03
2022-08-04T01:06:09.398Z,97785.66
2022-08-04T01:09:25.142Z,97790.53
2022-08-04T01:12:51.353Z,97800.41
2022-08-04T01:16:02.165Z,97798.22
2022-08-04T01:19:22.016Z,97789.47
2022-08-04T01:22:33.139Z,97792.88
2022-08-04T01:25:21.341Z,97784.84
2022-08-04T01:28:33.103Z,97784.84
2022-08-04T01:31:41.166Z,97783.41
2022-08-04T01:34:24.393Z,97785.34
2022-08-04T01:37:55.293Z,97793.59
2022-08-04T01:40:38.663Z,97802.25
2022-08-04T01:43:29.140Z,97793.16
2022-08-04T01:46:12.469Z,97794.78
2022-08-04T01:49:03.160Z,97786.91
2022-08-04T01:51:48.450Z,97793.56
2022-08-04T01:54:40.406Z,97787.78
2022-08-04T01:57:38.200Z,97801.94
2022-08-04T02:00:35.224Z,97813.72
2022-08-04T02:03:17.710Z,97823.94
2022-08-04T02:06:18.425Z,97829.31
2022-08-04T02:09:17.686Z,97844.88
2022-08-04T02:12:17.160Z,97848.31
2022-08-04T02:15:07.326Z,97850.53
2022-08-04T02:18:12.143Z,97848.03
2022-08-04T02:20:57.736Z,97850.59
2022-08-04T02:23:49.152Z,97858.16
2022-08-04T02:26:36.661Z,97863.28
2022-08-04T02:29:38.393Z,97871.78
2022-08-04T02:32:40.413Z,97871.50
2022-08-04T02:35:35.172Z,97869.25
2022-08-04T02:38:48.385Z,97869.72
2022-08-04T02:41:38.154Z,97870.53
2022-08-04T02:44:37.955Z,97882.56
2022-08-04T02:48:28.718Z,97883.56
2022-08-04T02:50:38.150Z,97881.78
2022-08-04T02:53:24.040Z,97876.13
2022-08-04T02:56:15.416Z,97874.66
2022-08-04T02:59:11.478Z,97876.69
2022-08-04T03:02:00.386Z,97881.78
2022-08-04T03:05:11.659Z,97871.72
2022-08-04T03:08:21.253Z,97884.94
2022-08-04T03:11:19.595Z,97889.78
2022-08-04T03:14:19.414Z,97890.19
2022-08-04T03:17:25.640Z,97889.28
2022-08-04T03:20:31.403Z,97886.13
2022-08-04T03:23:38.211Z,97905.91
2022-08-04T03:26:42.454Z,97905.81
2022-08-04T03:30:04.136Z,97903.78
2022-08-04T03:33:16.139Z,97894.88
2022-08-04T03:36:31.669Z,97897.53
2022-08-04T03:39:38.506Z,97894.88
2022-08-04T03:42:44.570Z,97890.97
2022-08-04T03:45:42.148Z,97894.22
2022-08-04T03:49:10.712Z,97883.06
2022-08-04T03:52:32.394Z,97888.63
2022-08-04T03:55:39.436Z,97896.81
2022-08-04T03:58:40.141Z,97894.03
2022-08-04T04:02:01.203Z,97887.81
2022-08-04T04:05:01.157Z,97880.66
2022-08-04T04:08:20.128Z,97881.47
2022-08-04T04:11:56.653Z,97870.97
2022-08-04T04:15:04.287Z,97872.13
2022-08-04T04:18:16.438Z,97879.47
2022-08-04T04:21:36.402Z,97876.66
2022-08-04T04:24:34.704Z,97875.03
2022-08-04T04:27:32.369Z,97876.50
2022-08-04T04:30:17.824Z,97880.38
2022-08-04T04:33:25.405Z,97882.91
2022-08-04T04:36:51.720Z,97878.72
2022-08-04T04:39:40.453Z,97886.56
2022-08-04T04:42:56.484Z,97888.38
2022-08-04T04:46:21.115Z,97891.44
2022-08-04T04:49:24.425Z,97888.75
2022-08-04T04:52:21.129Z,97889.72
2022-08-04T04:55:18.967Z,97890.13
2022-08-04T04:58:11.170Z,97891.22
2022-08-04T05:01:19.370Z,97886.88
2022-08-04T05:04:17.694Z,97886.84
2022-08-04T05:07:24.171Z,97893.16
2022-08-04T05:10:09.703Z,97883.25
2022-08-04T05:14:34.756Z,97894.44
2022-08-04T05:16:28.650Z,97882.66
2022-08-04T05:19:27.151Z,97886.06
2022-08-04T05:22:14.614Z,97883.44
2022-08-04T05:25:30.395Z,97885.38
2022-08-04T05:28:22.110Z,97875.38
2022-08-04T05:31:27.704Z,97876.19
2022-08-04T05:34:41.116Z,97872.94
2022-08-04T05:37:31.367Z,97870.78
2022-08-04T05:40:24.107Z,97867.94
2022-08-04T05:43:14.781Z,97869.59
2022-08-04T05:46:10.116Z,97863.03
2022-08-04T05:49:01.131Z,97856.19
2022-08-04T05:51:51.128Z,97852.81
2022-08-04T05:54:43.107Z,97854.88
2022-08-04T05:57:26.648Z,97848.50
2022-08-04T06:00:38.846Z,97853.88
2022-08-04T06:03:19.412Z,97848.16
2022-08-04T06:06:09.384Z,97846.81
2022-08-04T06:08:52.561Z,97837.03
2022-08-04T06:12:00.730Z,97833.81
2022-08-04T06:14:53.845Z,97843.59
2022-08-04T06:18:32.959Z,97835.00
2022-08-04T06:20:57.772Z,97850.06
2022-08-04T06:23:56.134Z,97849.00
2022-08-04T06:26:44.677Z,97841.44
2022-08-04T06:29:51.202Z,97846.19
2022-08-04T06:32:48.118Z,97840.38
2022-08-04T06:35:39.381Z,97840.69
2022-08-04T06:38:29.129Z,97844.25
2022-08-04T06:41:11.777Z,97835.44
2022-08-04T06:44:00.405Z,97838.75
2022-08-04T06:46:56.960Z,97839.56
2022-08-04T06:51:24.723Z,97835.38
2022-08-04T06:53:02.133Z,97830.31
2022-08-04T06:55:45.503Z,97826.88
2022-08-04T06:58:36.086Z,97828.09
2022-08-04T07:01:29.196Z,97830.69
2022-08-04T07:04:19.371Z,97823.50
2022-08-04T07:07:01.877Z,97817.81
2022-08-04T07:09:50.378Z,97824.63
2022-08-04T07:12:40.127Z,97817.28
2022-08-04T07:15:30.406Z,97820.22
2022-08-04T07:18:13.110Z,97812.72
2022-08-04T07:20:55.122Z,97812.91
2022-08-04T07:23:45.377Z,97801.13
2022-08-04T07:26:30.364Z,97803.13
2022-08-04T07:29:19.361Z,97792.94
2022-08-04T07:32:02.977Z,97794.84
2022-08-04T07:34:53.473Z,97791.19
2022-08-04T07:37:45.408Z,97791.19
2022-08-04T07:40:27.385Z,97798.06
2022-08-04T07:43:24.368Z,97783.91
2022-08-04T07:46:13.424Z,97777.50
2022-08-04T07:49:03.413Z,97771.66
2022-08-04T07:51:46.420Z,97776.47
2022-08-04T07:54:35.139Z,97771.22
2022-08-04T07:57:19.163Z,97764.53
2022-08-04T08:00:16.177Z,97764.47
2022-08-04T08:03:00.320Z,97764.16
2022-08-04T08:06:17.272Z,97758.25
2022-08-04T08:08:58.374Z,97758.56
2022-08-04T08:12:35.114Z,97759.81
2022-08-04T08:14:50.395Z,97745.00
2022-08-04T08:17:59.130Z,97743.59
2022-08-04T08:20:42.116Z,97743.53
2022-08-04T08:23:31.498Z,97746.81
2022-08-04T08:26:14.160Z,97752.75
2022-08-04T08:29:03.156Z,97739.03
2022-08-04T08:31:57.160Z,97741.78
2022-08-04T08:34:48.365Z,97730.22
2022-08-04T08:37:45.783Z,97729.16
2022-08-04T08:40:59.107Z,97733.44
2022-08-04T08:44:29.765Z,97734.09
2022-08-04T08:48:06.375Z,97720.97
2022-08-04T08:51:32.216Z,97720.31
2022-08-04T08:54:59.787Z,97710.66
2022-08-04T08:58:00.091Z,97703.66
2022-08-04T09:01:08.072Z,97705.00
2022-08-04T09:04:23.591Z,97693.41
2022-08-04T09:07:21.686Z,97689.91
2022-08-04T09:10:22.529Z,97690.66
2022-08-04T09:13:35.387Z,97687.78
2022-08-04T09:16:32.356Z,97678.75
2022-08-04T09:19:38.701Z,97677.81
2022-08-04T09:22:52.916Z,97676.31
2022-08-04T09:26:02.140Z,97670.72
2022-08-04T09:29:23.116Z,97661.44
2022-08-04T09:32:40.326Z,97658.25
2022-08-04T09:35:38.141Z,97645.91
2022-08-04T09:38:32.296Z,97641.97
2022-08-04T09:41:52.703Z,97637.63
2022-08-04T09:45:06.753Z,97652.66
2022-08-04T09:48:01.121Z,97641.59
2022-08-04T09:50:58.163Z,97643.81
2022-08-04T09:53:52.550Z,97643.97
2022-08-04T09:56:59.303Z,97620.09
2022-08-04T09:59:55.398Z,97622.16
2022-08-04T10:03:10.456Z,97618.66
2022-08-04T10:06:32.792Z,97620.50
2022-08-04T10:09:45.378Z,97606.44
2022-08-04T10:12:57.109Z,97603.72
2022-08-04T10:16:08.547Z,97593.31
2022-08-04T10:19:12.384Z,97580.06
2022-08-04T10:22:28.053Z,97581.13
2022-08-04T10:26:06.935Z,97575.19
2022-08-04T10:29:34.409Z,97574.78
2022-08-04T10:32:39.933Z,97571.91
2022-08-04T10:35:34.383Z,97564.53
2022-08-04T10:38:41.882Z,97559.31
2022-08-04T10:41:41.103Z,97552.75
2022-08-04T10:44:42.214Z,97544.44
2022-08-04T10:47:39.175Z,97531.22
2022-08-04T10:50:30.267Z,97523.75
2022-08-04T10:53:26.122Z,97523.50
2022-08-04T10:56:18.801Z,97531.13
2022-08-04T10:59:31.358Z,97537.94
2022-08-04T11:02:35.408Z,97532.56
2022-08-04T11:05:57.364Z,97518.91
2022-08-04T11:09:02.371Z,97515.06
2022-08-04T11:11:56.908Z,97510.50
2022-08-04T11:15:02.130Z,97516.69
2022-08-04T11:17:58.432Z,97517.78
2022-08-04T11:20:50.587Z,97521.16
2022-08-04T11:23:45.374Z,97509.25
2022-08-04T11:26:32.631Z,97504.03
2022-08-04T11:29:44.402Z,97499.66
2022-08-04T11:32:46.376Z,97497.53
2022-08-04T11:35:43.161Z,97504.59
2022-08-04T11:38:37.681Z,97504.53
2022-08-04T11:41:34.145Z,97507.34
2022-08-04T11:44:26.390Z,97502.63
2022-08-04T11:47:40.370Z,97507.75
2022-08-04T11:50:53.624Z,97503.75
2022-08-04T11:53:52.203Z,97503.72
2022-08-04T11:56:41.152Z,97501.41
2022-08-04T11:59:23.656Z,97498.25
2022-08-04T12:02:49.205Z,97492.22
2022-08-04T12:05:38.771Z,97489.97
2022-08-04T12:09:05.369Z,97497.56
2022-08-04T12:11:58.584Z,97495.09
2022-08-04T12:15:05.377Z,97499.00
2022-08-04T12:18:42.319Z,97499.44
2022-08-04T12:21:45.016Z,97494.22
2022-08-04T12:24:45.408Z,97493.06
2022-08-04T12:27:44.388Z,97498.31
2022-08-04T12:30:58.559Z,97505.13
2022-08-04T12:34:04.384Z,97512.69
2022-08-04T12:37:06.843Z,97507.91
2022-08-04T12:40:28.600Z,97507.91
2022-08-04T12:43:13.663Z,97507.91
2022-08-04T12:46:02.661Z,97511.88
2022-08-04T12:48:55.251Z,97513.50
2022-08-04T12:52:08.017Z,97510.63
2022-08-04T12:55:04.367Z,97514.34
2022-08-04T12:57:49.135Z,97510.31
2022-08-04T13:00:43.998Z,97513.63
2022-08-04T13:03:35.370Z,97509.56
2022-08-04T13:06:23.319Z,97511.91
2022-08-04T13:09:22.138Z,97518.22
2022-08-04T13:12:13.067Z,97509.97
2022-08-04T13:15:08.784Z,97515.88
2022-08-04T13:18:04.404Z,97522.25
2022-08-04T13:20:47.362Z,97510.34
2022-08-04T13:24:10.912Z,97522.72
2022-08-04T13:26:53.928Z,97530.22
2022-08-04T13:29:58.949Z,97529.44
2022-08-04T13:32:53.235Z,97527.50
2022-08-04T13:35:54.418Z,97528.28
2022-08-04T13:38:46.140Z,97530.31
2022-08-04T13:41:31.425Z,97538.28
2022-08-04T13:44:24.369Z,97544.63
2022-08-04T13:47:21.456Z,97541.84
2022-08-04T13:50:37.346Z,97551.81
2022-08-04T13:53:33.352Z,97551.81
2022-08-04T13:56:17.481Z,97554.22
2022-08-04T13:59:13.512Z,97555.81
2022-08-04T14:02:16.127Z,97561.78
2022-08-04T14:05:05.301Z,97557.00
2022-08-04T14:08:33.105Z,97557.78
2022-08-04T14:12:07.041Z,97560.97
2022-08-04T14:14:36.372Z,97561.41
2022-08-04T14:18:22.362Z,97561.41
2022-08-04T14:21:20.071Z,97558.63
2022-08-04T14:24:11.330Z,97564.19
2022-08-04T14:27:00.224Z,97571.75
2022-08-04T14:29:46.685Z,97570.56
2022-08-04T14:32:35.423Z,97572.53
2022-08-04T14:35:20.742Z,97585.25
2022-08-04T14:38:18.370Z,97584.06
2022-08-04T14:41:07.567Z,97588.03
2022-08-04T14:43:57.105Z,97599.16
2022-08-04T14:46:39.246Z,97606.75
2022-08-04T14:49:28.216Z,97610.66
2022-08-04T14:52:10.317Z,97609.13
2022-08-04T14:55:06.106Z,97619.06
2022-08-04T14:58:35.263Z,97618.25
2022-08-04T15:01:16.366Z,97624.59
2022-08-04T15:04:08.460Z,97623.81
2022-08-04T15:06:51.147Z,97630.19
2022-08-04T15:09:34.786Z,97630.97
2022-08-04T15:12:25.314Z,97630.16
2022-08-04T15:15:35.858Z,97636.44
2022-08-04T15:18:18.396Z,97636.84
2022-08-04T15:21:03.395Z,97642.00
2022-08-04T15:23:52.179Z,97642.78
2022-08-04T15:26:53.076Z,97648.81
2022-08-04T15:30:00.177Z,97653.56
2022-08-04T15:33:00.120Z,97650.06
2022-08-04T15:35:42.680Z,97652.69
2022-08-04T15:38:37.142Z,97652.75
2022-08-04T15:41:46.439Z,97658.31
2022-08-04T15:45:02.351Z,97654.69
2022-08-04T15:47:53.547Z,97657.88
2022-08-04T15:50:35.764Z,97671.38
2022-08-04T15:53:24.375Z,97669.38
2022-08-04T15:56:48.413Z,97674.84
2022-08-04T16:00:15.278Z,97674.44
2022-08-04T16:02:57.424Z,97677.69
2022-08-04T16:05:47.363Z,97686.06
2022-08-04T16:08:29.429Z,97686.13
2022-08-04T16:11:38.348Z,97690.66
2022-08-04T16:14:27.124Z,97684.44
2022-08-04T16:17:19.556Z,97689.94
2022-08-04T16:20:22.129Z,97691.13
2022-08-04T16:24:02.232Z,97681.13
2022-08-04T16:26:54.492Z,97691.97
2022-08-04T16:30:17.349Z,97693.81
2022-08-04T16:33:07.079Z,97685.88
2022-08-04T16:36:07.839Z,97684.31
2022-08-04T16:39:14.184Z,97689.53
2022-08-04T16:42:03.162Z,97694.97
2022-08-04T16:45:13.753Z,97691.16
2022-08-04T16:48:02.429Z,97699.88
2022-08-04T16:50:56.615Z,97698.66
2022-08-04T16:54:04.984Z,97697.81
2022-08-04T16:57:01.360Z,97699.25
2022-08-04T17:00:00.145Z,97695.75
2022-08-04T17:02:44.688Z,97696.16
2022-08-04T17:05:39.169Z,97698.84
2022-08-04T17:08:30.420Z,97698.38
2022-08-04T17:11:20.111Z,97692.25
2022-08-04T17:14:05.863Z,97699.38
2022-08-04T17:16:55.393Z,97693.84
2022-08-04T17:19:44.150Z,97695.06
2022-08-04T17:22:33.345Z,97700.09
2022-08-04T17:25:16.493Z,97686.63
2022-08-04T17:28:24.869Z,97696.03
2022-08-04T17:31:15.552Z,97704.81
2022-08-04T17:40:26.725Z,97700.78
2022-08-04T17:44:02.907Z,97700.19
2022-08-04T17:46:29.057Z,97707.19
2022-08-04T17:49:27.379Z,97711.13
2022-08-04T17:52:39.639Z,97698.97
2022-08-04T17:55:30.128Z,97697.84
2022-08-04T17:58:30.418Z,97690.22
2022-08-04T18:01:28.284Z,97698.50
2022-08-04T18:04:28.676Z,97701.75
2022-08-04T18:10:54.733Z,97696.47
2022-08-04T18:13:42.855Z,97695.66
2022-08-04T18:16:32.042Z,97686.53
2022-08-04T18:19:31.296Z,97685.41
2022-08-04T18:22:16.688Z,97683.91
2022-08-04T18:25:18.150Z,97694.50
2022-08-04T18:28:09.639Z,97690.44
2022-08-04T18:31:03.362Z,97699.25
2022-08-04T18:33:57.206Z,97706.75
2022-08-04T18:36:55.471Z,97700.84
2022-08-04T18:40:25.256Z,97704.13
2022-08-04T18:42:48.563Z,97703.31
2022-08-04T18:45:37.406Z,97706.72
2022-08-04T18:48:20.804Z,97710.59
2022-08-04T18:51:23.039Z,97712.66
2022-08-04T18:54:13.093Z,97717.63
2022-08-04T18:57:25.063Z,97705.56
2022-08-04T19:00:05.679Z,97713.56
2022-08-04T19:02:54.137Z,97707.75
2022-08-04T19:05:38.251Z,97713.00
2022-08-04T19:08:34.967Z,97720.63
2022-08-04T19:11:37.921Z,97719.13
2022-08-04T19:14:32.097Z,97718.94
2022-08-04T19:17:15.415Z,97722.09
2022-08-04T19:20:25.963Z,97719.28
2022-08-04T19:24:11.359Z,97717.19
2022-08-04T19:26:28.238Z,97722.56
2022-08-04T19:29:11.368Z,97727.00
2022-08-04T19:31:53.475Z,97728.50
2022-08-04T19:34:45.981Z,97729.34
2022-08-04T19:37:57.435Z,97731.97
2022-08-04T19:40:38.461Z,97740.63
2022-08-04T19:43:28.396Z,97734.31
2022-08-04T19:46:13.523Z,97728.66
2022-08-04T19:49:06.394Z,97736.59
2022-08-04T19:52:15.336Z,97733.84
2022-08-04T19:55:16.406Z,97729.97
2022-08-04T19:58:15.115Z,97720.41
2022-08-04T20:00:57.547Z,97721.16
2022-08-04T20:04:10.558Z,97715.03
2022-08-04T20:06:48.188Z,97713.50
2022-08-04T20:09:37.514Z,97707.34
2022-08-04T20:12:19.308Z,97714.53
2022-08-04T20:15:08.124Z,97712.31
2022-08-04T20:18:34.906Z,97705.88
2022-08-04T20:21:03.299Z,97698.75
2022-08-04T20:23:53.127Z,97692.84
2022-08-04T20:26:42.084Z,97700.31
2022-08-04T20:29:40.189Z,97699.78
2022-08-04T20:32:32.354Z,97698.78
2022-08-04T20:35:16.724Z,97694.75
2022-08-04T20:38:06.102Z,97695.19
2022-08-04T20:41:09.336Z,97690.41
2022-08-04T20:43:58.115Z,97677.09
2022-08-04T20:46:40.260Z,97675.31
2022-08-04T20:49:35.154Z,97684.94
2022-08-04T20:52:20.723Z,97687.44
2022-08-04T20:55:10.382Z,97698.38
2022-08-04T20:58:05.151Z,97700.75
2022-08-04T21:01:00.510Z,97708.59
2022-08-04T21:04:06.669Z,97716.06
2022-08-04T21:06:50.179Z,97714.25
2022-08-04T21:09:42.434Z,97724.06
2022-08-04T21:12:27.443Z,97725.25
2022-08-04T21:15:24.786Z,97734.81
2022-08-04T21:18:08.255Z,97738.31
2022-08-04T21:21:01.384Z,97738.09
2022-08-04T21:23:44.365Z,97733.72
2022-08-04T21:26:33.087Z,97728.03
2022-08-04T21:29:15.377Z,97734.41
2022-08-04T21:32:07.700Z,97736.75
2022-08-04T21:34:54.236Z,97732.84
2022-08-04T21:37:57.897Z,97733.66
2022-08-04T21:40:43.619Z,97728.44
2022-08-04T21:43:43.045Z,97727.22
2022-08-04T21:46:32.066Z,97726.50
2022-08-04T21:49:14.516Z,97739.84
2022-08-04T21:55:06.605Z,97738.50
2022-08-04T21:57:56.102Z,97731.63
2022-08-04T22:00:53.371Z,97735.66
2022-08-04T22:03:53.461Z,97739.28
2022-08-04T22:06:47.631Z,97734.28
2022-08-04T22:09:41.711Z,97745.97
2022-08-04T22:12:42.278Z,97745.13
2022-08-04T22:18:36.872Z,97740.38
2022-08-04T22:21:26.078Z,97741.25
2022-08-04T22:24:13.867Z,97751.16
2022-08-04T22:27:03.042Z,97740.50
2022-08-04T22:29:52.246Z,97737.47
2022-08-04T22:32:41.099Z,97732.59
2022-08-04T22:35:44.320Z,97733.81
2022-08-04T22:38:48.695Z,97725.22
2022-08-04T22:42:02.848Z,97733.53
2022-08-04T22:44:42.379Z,97724.47
2022-08-04T22:47:31.069Z,97719.75
2022-08-04T22:50:27.713Z,97730.66
2022-08-04T22:53:10.302Z,97717.41
2022-08-04T22:56:09.587Z,97723.00
2022-08-04T22:59:00.095Z,97724.53
2022-08-04T23:01:59.602Z,97724.53
2022-08-04T23:04:54.089Z,97725.16
2022-08-04T23:07:47.207Z,97722.16
2022-08-04T23:10:38.357Z,97713.41
2022-08-04T23:13:29.375Z,97723.97
2022-08-04T23:16:15.313Z,97718.59
2022-08-04T23:18:59.047Z,97725.78
2022-08-04T23:22:01.683Z,97730.47
2022-08-04T23:24:44.451Z,97731.59
2022-08-04T23:27:39.026Z,97729.31
2022-08-04T23:30:33.328Z,97729.38
2022-08-04T23:33:15.587Z,97733.72
2022-08-04T23:36:04.143Z,97730.06
2022-08-04T23:38:46.377Z,97730.06
2022-08-04T23:41:54.113Z,97728.09
2022-08-04T23:44:44.317Z,97738.63
2022-08-04T23:48:14.559Z,97733.81
2022-08-04T23:50:37.118Z,97729.84
2022-08-04T23:53:28.303Z,97739.44
2022-08-04T23:56:25.302Z,97739.41
2022-08-04T23:59:52.113Z,97741.06
